Terminal Aerodrome Forecast
Issued by NWS Charleston, SC

Home | Current Version | Previous Version | Text Only | Print | Product List | Glossary On
Versions: 1 2 3 4 5 6 7 8 9 10 11 12 13
000
FTUS42 KCHS 250537
TAFCHS
TAF
KCHS 250537Z 2506/2606 19004KT P6SM SCT120 BKN200
     FM251400 18008KT P6SM SCT035 BKN070
     FM251600 19013G19KT P6SM VCTS BKN035CB
     FM251800 19014G21KT 4SM TSRA SCT020 BKN035CB
     FM252200 22009KT 6SM -SHRA BKN035
     FM260000 22010KT P6SM SCT035 BKN120=

USA.gov is the U.S. government's official web portal to all federal, state and local government web resources and services.